KERV/ERV METAR and TAF weather

Enter ICAO airport designator
Station Type Date Time Source
KERV METAR 2021/01/27 12:55 UTC NOAA

KERV 271255Z AUTO 33004KT 10SM CLR 05/02 A3020 RMK AO2 T00480022


Station Type Date Time Source
KERV Decoded METAR 2021/01/27 12:55 UTC NOAA

Kerrville, Kerrville Municipal Airport/Louis Schreiner Field, TX, United States (KERV) 29-58N 099-05W
Jan 27, 2021 - 07:55 AM EST / 2021.01.27 1255 UTC
Wind: from the NNW (330 degrees) at 5 MPH (4 KT):0
Visibility: 10 mile(s):0
Sky conditions: clear
Temperature: 40.6 F (4.8 C)
Dew Point: 36.0 F (2.2 C)
Relative Humidity: 83%
Pressure (altimeter): 30.2 in. Hg (1022 hPa)
ob: KERV 271255Z AUTO 33004KT 10SM CLR 05/02 A3020 RMK AO2 T00480022
cycle: 13

Station Type Date Time Source
KERV TAF UTC NOAA

Error!

Example: see airport list